createdAt,value
2023-01-12T00:02:14.167Z,99782.81
2023-01-12T00:04:42.503Z,99784.69
2023-01-12T00:07:13.440Z,99776.75
2023-01-12T00:09:41.113Z,99778.31
2023-01-12T00:12:11.688Z,99782.59
2023-01-12T00:14:40.185Z,99787.24
2023-01-12T00:17:09.279Z,99790.69
2023-01-12T00:19:39.067Z,99793.25
2023-01-12T00:22:12.449Z,99794.27
2023-01-12T00:24:44.240Z,99796.33
2023-01-12T00:27:16.162Z,99794.27
2023-01-12T00:29:43.955Z,99794.95
2023-01-12T00:32:15.169Z,99798.40
2023-01-12T00:34:43.691Z,99798.91
2023-01-12T00:37:13.016Z,99804.22
2023-01-12T00:39:45.955Z,99803.37
2023-01-12T00:42:31.864Z,99808.68
2023-01-12T00:45:15.644Z,99808.16
2023-01-12T00:47:43.429Z,99813.85
2023-01-12T00:50:11.212Z,99812.98
2023-01-12T00:52:39.041Z,99816.58
2023-01-12T00:55:07.167Z,99819.34
2023-01-12T00:57:34.831Z,99819.85
2023-01-12T01:00:02.654Z,99816.06
2023-01-12T01:02:30.502Z,99813.11
2023-01-12T01:04:58.226Z,99815.86
2023-01-12T01:07:25.889Z,99822.91
2023-01-12T01:09:53.657Z,99821.52
2023-01-12T01:12:21.326Z,99825.81
2023-01-12T01:14:49.187Z,99825.99
2023-01-12T01:17:16.946Z,99824.95
2023-01-12T01:19:45.021Z,99818.56
2023-01-12T01:22:13.136Z,99819.92
2023-01-12T01:24:41.782Z,99821.83
2023-01-12T01:27:09.751Z,99822.50
2023-01-12T01:29:37.516Z,99825.60
2023-01-12T01:32:06.098Z,99823.69
2023-01-12T01:34:34.258Z,99829.52
2023-01-12T01:37:02.029Z,99827.60
2023-01-12T01:39:29.748Z,99828.98
2023-01-12T01:41:57.407Z,99827.58
2023-01-12T01:44:31.285Z,99826.33
2023-01-12T01:47:08.225Z,99826.66
2023-01-12T01:49:45.384Z,99833.88
2023-01-12T01:52:24.042Z,99830.41
2023-01-12T01:55:07.335Z,99830.55
2023-01-12T01:58:03.388Z,99831.21
2023-01-12T02:00:31.064Z,99834.13
2023-01-12T02:03:02.982Z,99837.73
2023-01-12T02:05:31.615Z,99844.27
2023-01-12T02:08:07.521Z,99848.57
2023-01-12T02:10:36.817Z,99854.27
2023-01-12T02:13:20.142Z,99862.34
2023-01-12T02:16:25.883Z,99863.21
2023-01-12T02:18:59.452Z,99867.17
2023-01-12T02:21:30.120Z,99863.73
2023-01-12T02:24:30.867Z,99866.31
2023-01-12T02:27:22.239Z,99863.38
2023-01-12T02:30:10.115Z,99866.48
2023-01-12T02:33:14.085Z,99868.55
2023-01-12T02:35:52.657Z,99862.31
2023-01-12T02:38:42.128Z,99865.08
2023-01-12T02:41:15.527Z,99867.31
2023-01-12T02:43:44.020Z,99867.97
2023-01-12T02:46:14.646Z,99870.22
2023-01-12T02:49:04.781Z,99870.22
2023-01-12T02:51:43.510Z,99869.34
2023-01-12T02:54:14.905Z,99869.67
2023-01-12T02:56:49.476Z,99872.08
2023-01-12T02:59:23.749Z,99875.70
2023-01-12T03:01:56.170Z,99884.83
2023-01-12T03:04:24.750Z,99884.13
2023-01-12T03:06:58.411Z,99883.61
2023-01-12T03:09:34.411Z,99874.98
2023-01-12T03:12:11.693Z,99867.74
2023-01-12T03:14:44.994Z,99864.96
2023-01-12T03:17:39.618Z,99868.73
2023-01-12T03:20:25.731Z,99868.73
2023-01-12T03:22:59.228Z,99870.12
2023-01-12T03:25:31.461Z,99869.09
2023-01-12T03:28:04.743Z,99867.00
2023-01-12T03:30:40.494Z,99858.70
2023-01-12T03:33:09.489Z,99855.25
2023-01-12T03:35:51.631Z,99852.83
2023-01-12T03:38:27.138Z,99854.53
2023-01-12T03:41:12.973Z,99847.11
2023-01-12T03:43:49.812Z,99847.97
2023-01-12T03:46:30.086Z,99854.87
2023-01-12T03:49:00.899Z,99853.27
2023-01-12T03:51:41.051Z,99850.70
2023-01-12T03:54:14.339Z,99851.17
2023-01-12T03:56:44.772Z,99854.98
2023-01-12T03:59:14.120Z,99858.08
2023-01-12T04:01:43.390Z,99863.77
2023-01-12T04:04:11.242Z,99865.99
2023-01-12T04:06:39.257Z,99859.09
2023-01-12T04:09:07.344Z,99858.21
2023-01-12T04:11:50.968Z,99851.99
2023-01-12T04:14:18.684Z,99853.23
2023-01-12T04:16:46.981Z,99858.05
2023-01-12T04:19:14.668Z,99863.57
2023-01-12T04:21:58.257Z,99866.85
2023-01-12T04:24:26.015Z,99872.88
2023-01-12T04:26:53.726Z,99877.71
2023-01-12T04:29:21.405Z,99874.27
2023-01-12T04:31:49.257Z,99867.70
2023-01-12T04:34:16.924Z,99867.88
2023-01-12T04:36:44.776Z,99874.58
2023-01-12T04:39:12.465Z,99874.23
2023-01-12T04:41:40.180Z,99874.57
2023-01-12T04:44:07.981Z,99873.01
2023-01-12T04:46:35.598Z,99869.71
2023-01-12T04:49:03.312Z,99877.98
2023-01-12T04:51:31.017Z,99877.30
2023-01-12T04:53:58.788Z,99884.88
2023-01-12T04:56:26.601Z,99883.33
2023-01-12T04:59:01.432Z,99883.15
2023-01-12T05:01:30.495Z,99884.16
2023-01-12T05:04:00.768Z,99890.88
2023-01-12T05:06:29.537Z,99889.84
2023-01-12T05:09:13.183Z,99889.48
2023-01-12T05:11:40.981Z,99894.31
2023-01-12T05:14:08.702Z,99894.09
2023-01-12T05:16:36.495Z,99893.40
2023-01-12T05:19:04.181Z,99889.05
2023-01-12T05:21:31.837Z,99890.91
2023-01-12T05:23:59.455Z,99886.75
2023-01-12T05:26:27.151Z,99885.19
2023-01-12T05:28:54.835Z,99881.20
2023-01-12T05:31:22.637Z,99880.85
2023-01-12T05:33:50.465Z,99878.05
2023-01-12T05:36:18.289Z,99878.23
2023-01-12T05:38:46.225Z,99880.30
2023-01-12T05:41:14.909Z,99885.63
2023-01-12T05:43:58.983Z,99890.79
2023-01-12T05:46:30.651Z,99889.06
2023-01-12T05:48:58.712Z,99892.99
2023-01-12T05:51:27.555Z,99899.39
2023-01-12T05:53:55.347Z,99899.71
2023-01-12T05:56:28.044Z,99901.25
2023-01-12T05:58:58.749Z,99898.83
2023-01-12T06:01:29.083Z,99898.31
2023-01-12T06:04:00.239Z,99900.39
2023-01-12T06:06:32.774Z,99899.16
2023-01-12T06:09:01.300Z,99904.17
2023-01-12T06:11:44.985Z,99903.80
2023-01-12T06:14:12.700Z,99906.22
2023-01-12T06:16:42.654Z,99911.23
2023-01-12T06:19:12.897Z,99917.30
2023-01-12T06:21:41.335Z,99924.38
2023-01-12T06:24:09.443Z,99927.31
2023-01-12T06:26:37.217Z,99927.53
2023-01-12T06:29:07.209Z,99927.58
2023-01-12T06:31:35.297Z,99922.97
2023-01-12T06:34:03.050Z,99921.81
2023-01-12T06:36:30.874Z,99927.23
2023-01-12T06:38:58.687Z,99930.91
2023-01-12T06:41:43.860Z,99927.34
2023-01-12T06:44:11.540Z,99933.42
2023-01-12T06:46:39.589Z,99927.90
2023-01-12T06:49:07.552Z,99938.42
2023-01-12T06:51:38.141Z,99936.33
2023-01-12T06:54:05.809Z,99933.39
2023-01-12T06:56:33.918Z,99928.04
2023-01-12T06:59:01.777Z,99926.47
2023-01-12T07:01:29.828Z,99928.02
2023-01-12T07:03:57.593Z,99927.66
2023-01-12T07:06:25.333Z,99932.31
2023-01-12T07:08:53.277Z,99927.47
2023-01-12T07:11:22.376Z,99929.01
2023-01-12T07:13:49.975Z,99928.14
2023-01-12T07:16:17.915Z,99936.26
2023-01-12T07:18:50.419Z,99930.21
2023-01-12T07:21:19.712Z,99926.61
2023-01-12T07:23:47.898Z,99926.98
2023-01-12T07:26:15.767Z,99926.31
2023-01-12T07:28:43.817Z,99932.38
2023-01-12T07:31:12.361Z,99935.17
2023-01-12T07:33:40.638Z,99939.66
2023-01-12T07:36:09.081Z,99935.73
2023-01-12T07:38:37.866Z,99931.79
2023-01-12T07:41:05.629Z,99931.81
2023-01-12T07:43:33.652Z,99931.66
2023-01-12T07:46:01.864Z,99932.72
2023-01-12T07:48:30.680Z,99929.29
2023-01-12T07:51:06.673Z,99932.92
2023-01-12T07:53:34.484Z,99936.53
2023-01-12T07:56:02.096Z,99935.50
2023-01-12T07:58:31.650Z,99933.78
2023-01-12T08:01:00.469Z,99932.23
2023-01-12T08:03:29.454Z,99919.80
2023-01-12T08:05:58.053Z,99920.32
2023-01-12T08:08:25.727Z,99923.59
2023-01-12T08:10:53.679Z,99915.80
2023-01-12T08:13:23.060Z,99913.88
2023-01-12T08:15:51.501Z,99912.63
2023-01-12T08:18:31.328Z,99911.25
2023-01-12T08:21:04.372Z,99907.94
2023-01-12T08:23:42.111Z,99907.91
2023-01-12T08:26:18.211Z,99908.73
2023-01-12T08:28:52.725Z,99918.34
2023-01-12T08:31:24.877Z,99913.78
2023-01-12T08:33:54.889Z,99910.44
2023-01-12T08:36:23.324Z,99911.58
2023-01-12T08:38:51.587Z,99907.92
2023-01-12T08:41:35.239Z,99905.16
2023-01-12T08:44:12.591Z,99894.98
2023-01-12T08:46:52.038Z,99894.14
2023-01-12T08:49:26.707Z,99893.48
2023-01-12T08:51:55.620Z,99898.52
2023-01-12T08:54:24.088Z,99895.27
2023-01-12T08:56:53.424Z,99898.70
2023-01-12T08:59:21.956Z,99900.73
2023-01-12T09:01:52.257Z,99901.58
2023-01-12T09:04:20.701Z,99905.89
2023-01-12T09:06:48.721Z,99905.36
2023-01-12T09:09:19.971Z,99912.02
2023-01-12T09:11:49.029Z,99921.58
2023-01-12T09:14:17.494Z,99919.38
2023-01-12T09:16:45.630Z,99922.69
2023-01-12T09:19:13.691Z,99914.75
2023-01-12T09:21:43.648Z,99920.31
2023-01-12T09:24:14.434Z,99913.30
2023-01-12T09:26:45.883Z,99909.94
2023-01-12T09:29:17.909Z,99899.64
2023-01-12T09:31:46.275Z,99900.92
2023-01-12T09:34:14.608Z,99894.55
2023-01-12T09:36:43.306Z,99887.31
2023-01-12T09:39:26.802Z,99881.77
2023-01-12T09:42:12.499Z,99885.02
2023-01-12T09:45:03.062Z,99882.57
2023-01-12T09:47:54.190Z,99877.59
2023-01-12T09:50:24.905Z,99886.91
2023-01-12T09:53:02.498Z,99878.15
2023-01-12T09:56:03.176Z,99874.91
2023-01-12T09:58:33.924Z,99874.77
2023-01-12T10:01:09.020Z,99875.76
2023-01-12T10:03:41.615Z,99876.80
2023-01-12T10:06:20.565Z,99873.38
2023-01-12T10:08:56.106Z,99874.09
2023-01-12T10:11:55.819Z,99869.77
2023-01-12T10:14:48.126Z,99863.02
2023-01-12T10:17:41.856Z,99862.00
2023-01-12T10:20:18.427Z,99860.08
2023-01-12T10:22:55.808Z,99855.45
2023-01-12T10:25:41.851Z,99858.85
2023-01-12T10:28:33.585Z,99859.59
2023-01-12T10:31:02.465Z,99859.77
2023-01-12T10:33:32.979Z,99863.67
2023-01-12T10:36:09.212Z,99859.84
2023-01-12T10:38:38.425Z,99854.42
2023-01-12T10:41:26.580Z,99848.48
2023-01-12T10:44:00.883Z,99851.89
2023-01-12T10:46:34.183Z,99841.60
2023-01-12T10:49:22.308Z,99836.83
2023-01-12T10:52:01.473Z,99833.41
2023-01-12T10:54:36.384Z,99839.31
2023-01-12T10:57:09.928Z,99831.73
2023-01-12T10:59:43.910Z,99828.79
2023-01-12T11:02:18.545Z,99825.15
2023-01-12T11:04:49.894Z,99824.95
2023-01-12T11:07:19.510Z,99811.61
2023-01-12T11:09:47.737Z,99810.00
2023-01-12T11:12:30.005Z,99806.46
2023-01-12T11:15:21.715Z,99792.36
2023-01-12T11:18:05.667Z,99797.77
2023-01-12T11:20:38.059Z,99791.11
2023-01-12T11:23:32.828Z,99796.95
2023-01-12T11:26:04.731Z,99784.95
2023-01-12T11:28:43.392Z,99781.21
2023-01-12T11:31:20.651Z,99776.25
2023-01-12T11:34:20.752Z,99771.78
2023-01-12T11:36:55.724Z,99759.36
2023-01-12T11:39:26.036Z,99756.48
2023-01-12T11:42:15.679Z,99752.42
2023-01-12T11:44:52.180Z,99749.77
2023-01-12T11:47:29.650Z,99746.45
2023-01-12T11:50:22.736Z,99745.36
2023-01-12T11:52:55.085Z,99749.13
2023-01-12T11:55:44.511Z,99744.11
2023-01-12T11:58:40.047Z,99744.27
2023-01-12T12:01:07.783Z,99732.66
2023-01-12T12:03:54.555Z,99733.53
2023-01-12T12:06:36.236Z,99735.95
2023-01-12T12:09:17.179Z,99729.95
2023-01-12T12:12:04.478Z,99728.09
2023-01-12T12:14:35.619Z,99729.50
2023-01-12T12:17:04.180Z,99725.70
2023-01-12T12:19:38.361Z,99717.27
2023-01-12T12:22:18.435Z,99719.04
2023-01-12T12:25:07.968Z,99717.89
2023-01-12T12:27:57.176Z,99717.08
2023-01-12T12:30:37.909Z,99716.27
2023-01-12T12:33:18.606Z,99710.59
2023-01-12T12:36:06.926Z,99710.55
2023-01-12T12:38:56.741Z,99709.95
2023-01-12T12:41:45.404Z,99706.30
2023-01-12T12:44:56.212Z,99701.13
2023-01-12T12:47:55.787Z,99702.99
2023-01-12T12:50:29.504Z,99702.30
2023-01-12T12:53:24.802Z,99698.13
2023-01-12T12:55:55.760Z,99694.11
2023-01-12T12:58:23.574Z,99688.20
2023-01-12T13:00:53.283Z,99693.05
2023-01-12T13:03:39.816Z,99692.00
2023-01-12T13:06:39.546Z,99692.14
2023-01-12T13:09:16.193Z,99685.70
2023-01-12T13:11:56.044Z,99686.41
2023-01-12T13:14:28.076Z,99681.70
2023-01-12T13:16:59.584Z,99675.42
2023-01-12T13:19:47.573Z,99673.85
2023-01-12T13:22:47.179Z,99675.92
2023-01-12T13:25:20.691Z,99668.65
2023-01-12T13:28:04.323Z,99669.19
2023-01-12T13:30:31.939Z,99663.98
2023-01-12T13:33:16.268Z,99665.88
2023-01-12T13:35:45.023Z,99662.34
2023-01-12T13:38:19.888Z,99658.19
2023-01-12T13:40:56.031Z,99654.77
2023-01-12T13:43:30.392Z,99652.38
2023-01-12T13:46:03.958Z,99656.88
2023-01-12T13:48:35.581Z,99656.05
2023-01-12T13:51:24.178Z,99655.76
2023-01-12T13:54:10.577Z,99647.98
2023-01-12T13:56:39.379Z,99643.86
2023-01-12T13:59:18.509Z,99639.85
2023-01-12T14:01:48.146Z,99637.38
2023-01-12T14:04:19.912Z,99638.23
2023-01-12T14:07:20.715Z,99635.27
2023-01-12T14:10:07.197Z,99629.98
2023-01-12T14:12:57.294Z,99627.56
2023-01-12T14:15:57.817Z,99629.30
2023-01-12T14:18:28.932Z,99621.85
2023-01-12T14:21:02.318Z,99625.02
2023-01-12T14:23:35.001Z,99627.33
2023-01-12T14:26:10.685Z,99619.65
2023-01-12T14:28:42.957Z,99617.21
2023-01-12T14:31:45.828Z,99615.52
2023-01-12T14:34:35.877Z,99606.56
2023-01-12T14:37:08.003Z,99607.61
2023-01-12T14:39:52.686Z,99615.03
2023-01-12T14:42:37.033Z,99615.90
2023-01-12T14:45:38.232Z,99610.65
2023-01-12T14:48:34.009Z,99611.17
2023-01-12T14:54:08.902Z,99613.86
2023-01-12T14:57:01.517Z,99621.58
2023-01-12T14:59:34.292Z,99623.06
2023-01-12T15:02:30.192Z,99629.05
2023-01-12T15:05:22.606Z,99634.02
2023-01-12T15:07:56.037Z,99636.73
2023-01-12T15:10:37.249Z,99633.34
2023-01-12T15:13:35.098Z,99636.33
2023-01-12T15:16:21.847Z,99641.52
2023-01-12T15:19:05.764Z,99637.68
2023-01-12T15:21:49.576Z,99628.48
2023-01-12T15:24:41.723Z,99627.10
2023-01-12T15:27:12.972Z,99623.29
2023-01-12T15:29:40.883Z,99621.21
2023-01-12T15:32:51.632Z,99622.09
2023-01-12T15:35:30.238Z,99621.95
2023-01-12T15:37:59.280Z,99622.66
2023-01-12T15:40:28.119Z,99618.72
2023-01-12T15:42:56.257Z,99613.26
2023-01-12T15:45:41.599Z,99607.42
2023-01-12T15:48:09.960Z,99606.11
2023-01-12T15:50:40.644Z,99604.45
2023-01-12T15:53:19.770Z,99604.11
2023-01-12T15:55:48.502Z,99599.09
2023-01-12T15:58:17.559Z,99600.46
2023-01-12T16:00:45.842Z,99601.50
2023-01-12T16:03:34.569Z,99595.30
2023-01-12T16:06:02.643Z,99591.87
2023-01-12T16:08:30.613Z,99590.86
2023-01-12T16:11:14.506Z,99586.08
2023-01-12T16:13:42.572Z,99581.08
2023-01-12T16:16:21.423Z,99575.44
2023-01-12T16:18:49.365Z,99577.86
2023-01-12T16:21:22.373Z,99568.71
2023-01-12T16:23:50.734Z,99563.23
2023-01-12T16:26:18.439Z,99564.97
2023-01-12T16:28:46.489Z,99564.98
2023-01-12T16:31:14.775Z,99563.96
2023-01-12T16:33:44.074Z,99559.34
2023-01-12T16:36:13.883Z,99561.25
2023-01-12T16:38:42.104Z,99570.29
2023-01-12T16:41:13.031Z,99564.41
2023-01-12T16:43:41.151Z,99567.18
2023-01-12T16:46:11.293Z,99565.28
2023-01-12T16:48:41.343Z,99567.02
2023-01-12T16:51:14.431Z,99571.69
2023-01-12T16:53:45.296Z,99566.16
2023-01-12T16:56:15.529Z,99566.52
2023-01-12T16:58:48.180Z,99563.39
2023-01-12T17:01:21.282Z,99561.83
2023-01-12T17:04:02.441Z,99560.73
2023-01-12T17:06:30.640Z,99563.30
2023-01-12T17:09:01.979Z,99562.55
2023-01-12T17:11:30.939Z,99566.14
2023-01-12T17:13:59.221Z,99563.35
2023-01-12T17:16:30.329Z,99566.77
2023-01-12T17:18:58.432Z,99564.48
2023-01-12T17:21:26.274Z,99558.80
2023-01-12T17:23:54.054Z,99557.27
2023-01-12T17:26:31.044Z,99555.08
2023-01-12T17:28:59.208Z,99551.52
2023-01-12T17:31:27.319Z,99551.94
2023-01-12T17:33:55.299Z,99555.46
2023-01-12T17:36:23.082Z,99557.42
2023-01-12T17:38:50.888Z,99546.46
2023-01-12T17:41:34.652Z,99541.86
2023-01-12T17:44:05.489Z,99537.62
2023-01-12T17:46:34.589Z,99532.16
2023-01-12T17:49:05.914Z,99529.25
2023-01-12T17:51:35.238Z,99531.19
2023-01-12T17:54:05.373Z,99529.48
2023-01-12T17:56:35.364Z,99524.00
2023-01-12T17:59:04.309Z,99525.94
2023-01-12T18:01:34.457Z,99520.80
2023-01-12T18:04:03.339Z,99526.52
2023-01-12T18:06:31.458Z,99521.90
2023-01-12T18:08:59.757Z,99519.01
2023-01-12T18:11:36.443Z,99524.03
2023-01-12T18:14:05.363Z,99519.89
2023-01-12T18:16:33.826Z,99517.84
2023-01-12T18:19:04.765Z,99522.00
2023-01-12T18:21:33.647Z,99527.14
2023-01-12T18:24:01.909Z,99524.73
2023-01-12T18:26:32.898Z,99524.38
2023-01-12T18:29:02.086Z,99524.02
2023-01-12T18:31:32.106Z,99525.67
2023-01-12T18:34:05.225Z,99519.05
2023-01-12T18:36:35.863Z,99520.36
2023-01-12T18:39:05.994Z,99522.17
2023-01-12T18:41:51.888Z,99517.77
2023-01-12T18:44:20.681Z,99513.92
2023-01-12T18:47:04.398Z,99512.11
2023-01-12T18:49:34.173Z,99513.14
2023-01-12T18:52:19.412Z,99514.27
2023-01-12T18:54:48.120Z,99511.30
2023-01-12T18:57:18.220Z,99507.46
2023-01-12T18:59:47.721Z,99505.33
2023-01-12T19:02:16.787Z,99507.02
2023-01-12T19:04:49.858Z,99508.38
2023-01-12T19:07:40.306Z,99517.31
2023-01-12T19:10:08.567Z,99517.60
2023-01-12T19:12:36.351Z,99511.02
2023-01-12T19:15:20.566Z,99501.67
2023-01-12T19:17:48.376Z,99505.45
2023-01-12T19:20:17.171Z,99503.89
2023-01-12T19:23:00.937Z,99503.02
2023-01-12T19:25:45.000Z,99506.08
2023-01-12T19:28:30.983Z,99507.26
2023-01-12T19:31:05.401Z,99504.45
2023-01-12T19:33:33.703Z,99505.45
2023-01-12T19:36:10.346Z,99496.24
2023-01-12T19:38:39.407Z,99494.30
2023-01-12T19:41:14.127Z,99489.77
2023-01-12T19:43:45.264Z,99489.93
2023-01-12T19:46:13.315Z,99487.98
2023-01-12T19:48:41.291Z,99486.21
2023-01-12T19:51:10.982Z,99484.61
2023-01-12T19:53:40.470Z,99489.58
2023-01-12T19:56:12.358Z,99490.58
2023-01-12T19:58:40.500Z,99484.33
2023-01-12T20:01:08.469Z,99486.55
2023-01-12T20:03:39.654Z,99487.54
2023-01-12T20:06:08.331Z,99490.95
2023-01-12T20:08:36.218Z,99483.33
2023-01-12T20:11:05.547Z,99485.02
2023-01-12T20:13:34.365Z,99478.77
2023-01-12T20:16:07.976Z,99477.36
2023-01-12T20:18:36.042Z,99476.15
2023-01-12T20:21:10.427Z,99476.84
2023-01-12T20:23:38.672Z,99475.43
2023-01-12T20:26:08.545Z,99476.83
2023-01-12T20:28:36.389Z,99476.81
2023-01-12T20:31:13.066Z,99472.32
2023-01-12T20:33:41.038Z,99470.20
2023-01-12T20:36:11.374Z,99471.94
2023-01-12T20:38:40.681Z,99472.81
2023-01-12T20:41:09.455Z,99469.69
2023-01-12T20:43:37.666Z,99476.44
2023-01-12T20:46:10.935Z,99475.94
2023-01-12T20:48:42.885Z,99478.21
2023-01-12T20:51:13.918Z,99471.31
2023-01-12T20:53:42.809Z,99474.27
2023-01-12T20:56:10.847Z,99476.21
2023-01-12T20:58:38.623Z,99471.90
2023-01-12T21:01:12.257Z,99470.48
2023-01-12T21:03:40.272Z,99474.45
2023-01-12T21:06:13.511Z,99475.99
2023-01-12T21:08:45.150Z,99473.22
2023-01-12T21:11:16.442Z,99472.88
2023-01-12T21:13:44.869Z,99473.03
2023-01-12T21:16:16.057Z,99473.90
2023-01-12T21:18:44.406Z,99474.58
2023-01-12T21:21:12.385Z,99477.35
2023-01-12T21:23:40.430Z,99477.52
2023-01-12T21:26:08.835Z,99474.77
2023-01-12T21:28:38.615Z,99473.02
2023-01-12T21:31:11.324Z,99473.55
2023-01-12T21:33:39.531Z,99471.11
2023-01-12T21:36:07.728Z,99471.65
2023-01-12T21:38:35.500Z,99466.45
2023-01-12T21:41:04.631Z,99464.69
2023-01-12T21:43:33.368Z,99460.19
2023-01-12T21:46:10.052Z,99465.13
2023-01-12T21:48:38.020Z,99464.60
2023-01-12T21:51:10.149Z,99462.02
2023-01-12T21:53:38.065Z,99466.87
2023-01-12T21:56:06.239Z,99458.89
2023-01-12T21:58:35.855Z,99457.85
2023-01-12T22:01:08.804Z,99451.59
2023-01-12T22:03:36.949Z,99446.89
2023-01-12T22:06:11.207Z,99442.54
2023-01-12T22:08:40.848Z,99443.06
2023-01-12T22:11:13.347Z,99442.89
2023-01-12T22:13:41.909Z,99437.36
2023-01-12T22:16:13.413Z,99441.00
2023-01-12T22:18:46.430Z,99446.72
2023-01-12T22:21:14.667Z,99446.02
2023-01-12T22:23:42.942Z,99445.85
2023-01-12T22:26:13.406Z,99444.27
2023-01-12T22:28:43.537Z,99442.48
2023-01-12T22:31:14.128Z,99440.20
2023-01-12T22:33:57.492Z,99438.48
2023-01-12T22:36:25.412Z,99445.00
2023-01-12T22:38:53.461Z,99453.10
2023-01-12T22:41:22.442Z,99451.34
2023-01-12T22:43:50.961Z,99449.39
2023-01-12T22:46:26.437Z,99450.74
2023-01-12T22:48:56.113Z,99450.70
2023-01-12T22:51:26.268Z,99450.33
2023-01-12T22:53:55.517Z,99450.14
2023-01-12T22:56:23.807Z,99446.64
2023-01-12T22:58:53.783Z,99444.35
2023-01-12T23:01:23.499Z,99441.23
2023-01-12T23:03:55.565Z,99442.05
2023-01-12T23:06:25.419Z,99441.87
2023-01-12T23:08:54.074Z,99441.55
2023-01-12T23:11:26.563Z,99444.18
2023-01-12T23:13:54.956Z,99440.91
2023-01-12T23:16:23.208Z,99444.77
2023-01-12T23:18:51.662Z,99449.95
2023-01-12T23:21:21.860Z,99448.04
2023-01-12T23:23:52.887Z,99445.77
2023-01-12T23:26:24.267Z,99443.66
2023-01-12T23:28:55.747Z,99449.02
2023-01-12T23:31:27.780Z,99453.17
2023-01-12T23:33:57.081Z,99454.02
2023-01-12T23:36:26.656Z,99454.71
2023-01-12T23:38:59.129Z,99454.38
2023-01-12T23:41:28.716Z,99456.96
2023-01-12T23:43:59.351Z,99449.89
2023-01-12T23:46:29.455Z,99447.86
2023-01-12T23:48:57.772Z,99437.84
2023-01-12T23:51:27.687Z,99436.27
2023-01-12T23:53:59.177Z,99432.66
2023-01-12T23:56:29.119Z,99429.20
2023-01-12T23:58:57.309Z,99430.77
